Moose Jaw, Canada
Current Conditions -  °F | °C
As of 1:00 PM on Saturday 25 Oct 2014 (Local Time) from CYQR Reporting Station
Scattered Clouds Scattered Clouds  
Wind Chill: 52°   Ceiling: Unl
Heat Index: 52°   Visibility: 15mi
Dew Point: 34°   Wind: 5mph
Humidity: 50%   Direction: 140°SE
Pressure: 30.04"   Gusts: NA
Location:  50.4°N, 105.54°W
Report Text: CYQR 251900Z 14004KT 030V170 15SM FEW160 SCT270 11/01 A3004 RMK AC1CI3 AC TR SLP192
Loading
Personal Weather Stations






























Interactive Weather Map
Tropical Storm Tracking
New forecast layout! Learn more

10-Day Weather Forecast

Advertisements
Track Severe Weather on mobile